Latest Weather Observations for Murrurundi Gap

IDN60801

Issued at 1:05 am EDT Monday 24 November 2014 (issued every 30 minutes, with the page automatically refreshed every 10 minutes)

About weather observations | Map of weather stations | Latest weather observations for NSW | Other Formats
Station Details ID: 061392 Name: MURRURUNDI GAP AWS Lat: -31.74 Lon: 150.79 Height: 729.4 m
Data from the previous 72 hours. | See also: Recent months for locations in New South Wales
Date/Time
EDT
Temp
°C
App
Temp
°C
Dew
Point
Rel
Hum
%
Delta-T
°C
Wind Press
QNH
hPa
Press
MSL
hPa
Rain
since 9 am
mm
Dir
 
Spd
km/h
Gust
km/h
Spd
kts
Gust
kts
24/01:00am 24.2 23.3 10.5 42 7.8 N 6 13 3 7 1018.2 1015.3 0.0
24/12:30am 25.4 22.0 10.4 39 8.6 WNW 19 26 10 14 1018.5 1015.6 0.0
24/12:00am 26.6 22.6 10.3 36 9.4 NNW 22 32 12 17 1018.3 1015.4 0.0
 
Date/Time
EDT
Temp
°C
App
Temp
°C
Dew
Point
Rel
Hum
%
Delta-T
°C
Wind Press
QNH
hPa
Press
MSL
hPa
Rain
since 9 am
mm
Dir
 
Spd
km/h
Gust
km/h
Spd
kts
Gust
kts
23/11:30pm 26.7 21.8 10.0 35 9.6 WNW 26 37 14 20 1018.4 1015.5 0.0
23/11:00pm 26.5 22.4 10.2 36 9.4 NNE 22 56 12 30 1018.0 1015.0 0.0
23/10:30pm 25.8 19.8 10.8 39 8.7 N 33 52 18 28 1017.7 1014.7 0.0
23/10:00pm 25.5 17.6 10.9 40 8.5 N 43 67 23 36 1017.1 1014.2 0.0
23/09:30pm 25.7 17.8 11.5 41 8.3 N 44 80 24 43 1017.4 1014.4 0.0
23/09:00pm 26.0 18.7 12.8 44 7.9 N 43 69 23 37 1016.6 1013.6 0.0
23/08:30pm 28.4 20.3 11.9 36 9.9 N 46 69 25 37 1015.5 1012.5 0.0
23/08:22pm 29.6 22.8 10.7 31 11.1 N 37 59 20 32 1015.5 1012.5 0.0
23/08:16pm 31.3 25.4 8.9 25 12.9 NNW 30 46 16 25 1015.4 1012.4 0.0
23/08:00pm 31.6 27.3 9.2 25 13.0 NNW 22 28 12 15 1015.0 1012.0 0.0
23/07:30pm 32.2 27.8 9.1 24 13.4 NW 22 28 12 15 1014.9 1011.9 0.0
23/07:00pm 31.7 27.8 9.3 25 13.0 WNW 20 26 11 14 1014.7 1011.7 0.0
23/06:52pm 31.6 27.6 9.2 25 13.0 WNW 20 24 11 13 1014.6 1011.6 0.0
23/06:34pm 31.8 24.6 9.3 25 13.1 NNW 37 56 20 30 1014.3 1011.2 0.0
23/06:30pm 31.7 23.8 9.3 25 13.0 NNW 41 56 22 30 1014.0 1011.0 0.0
23/06:24pm 32.5 25.0 8.0 22 14.0 NNW 37 56 20 30 1013.7 1010.7 0.0
23/06:16pm 34.2 26.5 7.3 19 15.3 NNW 37 46 20 25 1013.8 1010.8 0.0
23/06:00pm 35.4 31.4 6.6 17 16.3 WNW 17 20 9 11 1013.7 1010.7 0.0
23/05:30pm 37.1 32.2 7.1 16 17.3 WNW 22 32 12 17 1013.4 1010.4 0.0
23/05:00pm 35.9 32.0 7.0 17 16.5 NW 17 30 9 16 1013.6 1010.6 0.0
23/04:30pm 36.3 30.4 7.4 17 16.7 NW 28 41 15 22 1013.9 1010.9 0.0
23/04:00pm 36.1 31.8 8.0 18 16.3 NW 20 28 11 15 1014.0 1011.0 0.0
23/03:30pm 36.2 31.2 6.4 16 16.9 NW 22 28 12 15 1014.5 1011.5 0.0
23/03:07pm 36.0 28.9 5.3 15 17.1 NW 32 50 17 27 1014.7 1011.7 0.0
23/03:00pm 36.2 28.5 5.5 15 17.2 NW 35 50 19 27 1014.4 1011.3 0.0
23/02:30pm 36.9 30.9 7.0 16 17.2 WNW 28 37 15 20 1015.3 1012.3 0.0
23/02:00pm 36.5 31.4 7.5 17 16.7 N 24 35 13 19 1015.6 1012.7 0.0
23/01:47pm 35.7 29.7 6.9 17 16.4 NW 28 46 15 25 1015.4 1012.4 0.0
23/01:30pm 36.1 30.5 8.8 19 16.1 NW 28 39 15 21 1015.8 1012.8 0.0
23/01:00pm 35.2 30.4 11.6 24 14.4 NNW 28 35 15 19 1016.4 1013.4 0.0
23/12:30pm 35.4 32.2 13.0 26 14.0 NW 22 37 12 20 1016.8 1013.8 0.0
23/12:00pm 34.2 29.3 12.5 27 13.4 NW 30 41 16 22 1016.9 1014.0 0.0
23/11:30am 33.2 28.5 14.3 32 11.9 NW 32 43 17 23 1017.3 1014.3 0.0
23/11:00am 33.1 28.4 14.2 32 11.9 NW 32 48 17 26 1017.3 1014.3 0.0
23/10:30am 32.2 27.7 14.8 35 11.0 NW 32 46 17 25 1017.4 1014.4 0.0
23/10:00am 30.7 26.0 14.8 38 10.0 NW 33 46 18 25 1017.1 1014.2 0.0
23/09:30am 29.9 25.5 15.2 41 9.3 NNW 32 39 17 21 1017.5 1014.5 0.0
23/09:00am 29.3 25.3 15.1 42 8.9 NNW 30 37 16 20 1017.3 1014.3 0.0
23/08:30am 28.4 23.8 14.6 43 8.6 NNW 32 41 17 22 1017.1 1014.2 0.0
23/08:00am 27.8 24.9 15.1 46 7.9 NNW 24 37 13 20 1017.0 1014.1 0.0
23/07:30am 27.1 23.8 14.1 44 8.0 NNW 24 37 13 20 1016.6 1013.6 0.0
23/07:00am 26.4 23.7 13.5 45 7.8 NNW 20 28 11 15 1016.5 1013.5 0.0
23/06:30am 25.8 23.0 11.2 40 8.5 NW 17 20 9 11 1016.1 1013.1 0.0
23/06:00am 25.8 22.6 8.3 33 9.7 NW 15 17 8 9 1015.6 1012.7 0.0
23/05:30am 26.9 25.2 7.4 29 10.7 NW 6 9 3 5 1015.1 1012.1 0.0
23/05:00am 24.8 23.9 11.4 43 7.8 SE 7 9 4 5 1014.9 1011.9 0.0
23/04:30am 27.2 26.4 11.2 36 9.4 E 6 7 3 4 1014.6 1011.6 0.0
23/04:00am 25.6 24.4 11.7 42 8.2 SE 9 11 5 6 1014.9 1011.9 0.0
23/03:30am 25.1 23.6 12.0 44 7.7 SE 11 13 6 7 1014.9 1011.9 0.0
23/03:00am 26.8 26.0 12.8 42 8.4 E 9 11 5 6 1014.8 1011.8 0.0
23/02:30am 25.7 24.6 13.2 46 7.5 ESE 11 13 6 7 1014.9 1011.9 0.0
23/02:00am 26.1 25.5 13.6 46 7.6 E 9 13 5 7 1015.1 1012.1 0.0
23/01:30am 25.3 22.9 11.5 42 8.1 SE 15 17 8 9 1015.2 1012.2 0.0
23/01:00am 25.5 23.3 10.9 40 8.5 ESE 13 17 7 9 1015.4 1012.4 0.0
23/12:30am 24.9 22.2 11.8 44 7.7 SE 17 19 9 10 1015.8 1012.8 0.0
23/12:00am 25.9 23.2 11.6 40 8.4 ESE 17 19 9 10 1015.9 1012.9 0.0
 
Date/Time
EDT
Temp
°C
App
Temp
°C
Dew
Point
Rel
Hum
%
Delta-T
°C
Wind Press
QNH
hPa
Press
MSL
hPa
Rain
since 9 am
mm
Dir
 
Spd
km/h
Gust
km/h
Spd
kts
Gust
kts
22/11:30pm 26.5 24.0 11.0 38 9.0 SE 15 19 8 10 1016.1 1013.1 0.0
22/11:00pm 26.4 23.4 10.5 37 9.2 SE 17 19 9 10 1016.2 1013.2 0.0
22/10:30pm 26.7 23.6 10.4 36 9.4 ESE 17 19 9 10 1016.2 1013.2 0.0
22/10:00pm 27.2 24.9 10.4 35 9.7 SE 13 17 7 9 1016.1 1013.1 0.0
22/09:30pm 27.2 24.5 10.4 35 9.7 ESE 15 17 8 9 1015.5 1012.5 0.0
22/09:00pm 27.4 24.7 10.2 34 9.9 ESE 15 17 8 9 1015.2 1012.2 0.0
22/08:30pm 28.1 25.4 10.3 33 10.3 ESE 15 17 8 9 1014.9 1011.9 0.0
22/08:00pm 29.1 26.4 10.3 31 11.0 SE 15 19 8 10 1014.5 1011.5 0.0
22/07:30pm 29.7 26.2 10.3 30 11.4 SSE 19 22 10 12 1014.1 1011.1 0.0
22/07:00pm 30.5 27.1 10.5 29 11.8 SSE 19 24 10 13 1013.8 1010.8 0.0
22/06:30pm 31.2 27.6 10.5 28 12.2 S 20 26 11 14 1013.5 1010.5 0.0
22/06:00pm 32.0 28.6 10.7 27 12.7 SSE 19 24 10 13 1013.3 1010.3 0.0
22/05:30pm 32.5 28.9 10.5 26 13.1 SSE 20 28 11 15 1013.2 1010.2 0.0
22/05:00pm 32.8 29.5 10.8 26 13.2 S 19 24 10 13 1013.1 1010.0 0.0
22/04:30pm 33.5 31.5 11.4 26 13.4 SSE 13 26 7 14 1013.4 1010.4 0.0
22/04:00pm 33.3 30.3 10.6 25 13.6 E 17 22 9 12 1013.5 1010.5 0.0
22/03:30pm 33.8 31.9 10.4 24 14.0 SE 11 19 6 10 1013.8 1010.8 0.0
22/03:00pm 34.3 31.2 7.4 19 15.4 NE 13 17 7 9 1014.1 1011.1 0.0
22/02:30pm 33.2 29.4 4.0 16 15.7 NNE 13 26 7 14 1014.6 1011.6 0.0
22/02:00pm 32.8 28.4 4.6 17 15.3 WNW 17 22 9 12 1014.9 1011.9 0.0
22/01:30pm 31.4 29.5 14.1 35 10.8 ESE 17 20 9 11 1015.3 1012.3 0.0
22/01:00pm 29.8 28.4 14.4 39 9.6 ESE 15 22 8 12 1015.8 1012.8 0.0
22/12:30pm 28.8 26.5 14.2 40 9.0 SE 19 24 10 13 1016.1 1013.1 0.0
22/12:00pm 27.8 25.7 14.8 45 8.1 ESE 19 26 10 14 1016.3 1013.3 0.0
22/11:30am 26.9 24.6 14.6 46 7.6 ESE 20 22 11 12 1016.7 1013.7 0.0
22/11:00am 26.3 23.9 15.4 51 6.8 SSE 22 28 12 15 1017.0 1014.1 0.0
22/10:30am 23.9 21.0 15.1 58 5.4 ESE 24 32 13 17 1017.1 1014.2 0.0
22/10:00am 23.8 20.9 16.1 62 4.8 SE 26 32 14 17 1017.1 1014.2 0.0
22/09:30am 21.0 17.7 15.1 69 3.6 ESE 26 33 14 18 1017.1 1014.2 0.0
22/09:00am 19.7 15.9 14.7 73 3.0 SE 28 35 15 19 1017.3 1014.3 0.0
22/08:30am 18.7 14.2 15.0 79 2.2 ESE 32 35 17 19 1017.3 1014.3 0.0
22/08:12am 17.7 13.6 15.0 84 1.6 ESE 30 35 16 19 1017.0 1014.1 0.0
22/08:00am 17.4 13.3 15.0 86 1.4 ESE 30 37 16 20 1016.9 1014.0 0.0
22/07:30am 16.1 11.6 14.8 92 0.8 SE 32 37 17 20 1016.7 1013.7 0.0
22/07:00am 16.1 11.7 15.1 94 0.6 SE 32 37 17 20 1016.3 1013.3 0.0
22/06:30am 15.5 11.4 15.0 97 0.3 SE 30 35 16 19 1015.8 1012.8 0.0
22/06:11am 15.2 11.0 14.7 97 0.3 SE 30 33 16 18 1015.4 1012.4 0.0
22/06:00am 15.1 10.5 14.6 97 0.3 SE 32 35 17 19 1015.2 1012.2 0.0
22/05:30am 15.5 11.3 14.7 95 0.5 SE 30 35 16 19 1014.8 1011.8 0.0
22/05:00am 16.3 12.1 14.7 90 1.0 SE 30 35 16 19 1014.5 1011.5 0.0
22/04:30am 17.7 14.0 15.0 84 1.6 SSE 28 33 15 18 1014.1 1011.1 0.0
22/04:00am 18.5 14.9 15.2 81 2.0 SSE 28 35 15 19 1014.0 1011.0 0.0
22/03:30am 19.4 15.0 14.2 72 3.1 S 30 35 16 19 1013.9 1010.9 0.0
22/03:00am 20.8 16.5 13.3 62 4.4 S 28 35 15 19 1013.9 1010.9 0.0
22/02:30am 21.8 17.4 12.9 57 5.3 S 28 35 15 19 1014.0 1011.0 0.0
22/02:00am 22.8 17.3 10.6 46 7.0 S 30 39 16 21 1014.1 1011.1 0.0
22/01:30am 23.3 18.9 7.4 36 8.6 SSE 20 30 11 16 1014.4 1011.3 0.0
22/01:00am 24.6 18.7 5.9 30 9.9 SSE 26 33 14 18 1014.6 1011.6 0.0
22/12:30am 24.8 18.5 5.6 29 10.1 SE 28 37 15 20 1014.5 1011.5 0.0
22/12:00am 25.9 22.1 6.0 28 10.6 SE 15 26 8 14 1014.6 1011.6 0.0
 
Date/Time
EDT
Temp
°C
App
Temp
°C
Dew
Point
Rel
Hum
%
Delta-T
°C
Wind Press
QNH
hPa
Press
MSL
hPa
Rain
since 9 am
mm
Dir
 
Spd
km/h
Gust
km/h
Spd
kts
Gust
kts
21/11:30pm 26.3 22.0 5.3 26 11.1 SE 17 26 9 14 1014.7 1011.7 0.0
21/11:00pm 26.6 21.8 5.5 26 11.2 ESE 20 30 11 16 1014.6 1011.6 0.0
21/10:30pm 26.0 21.3 5.0 26 11.0 SE 19 24 10 13 1014.4 1011.3 0.0
21/10:00pm 27.5 24.2 4.5 23 12.1 SE 11 17 6 9 1014.3 1011.2 0.0
21/09:30pm 28.5 23.6 4.1 21 12.8 SW 19 28 10 15 1013.9 1010.9 0.0
21/09:00pm 29.0 23.8 3.8 20 13.2 WSW 20 37 11 20 1013.4 1010.4 0.0
21/08:30pm 29.7 24.9 5.7 22 13.0 WSW 20 32 11 17 1012.7 1009.7 0.0
21/08:00pm 29.5 28.1 9.6 29 11.5 W 7 9 4 5 1012.2 1009.2 0.0
21/07:30pm 29.9 27.6 10.5 30 11.4 WNW 13 17 7 9 1011.8 1008.7 0.0
21/07:00pm 31.1 27.7 10.4 28 12.2 NW 19 24 10 13 1011.2 1008.2 0.0
21/06:30pm 31.4 27.5 10.7 28 12.3 NNW 22 28 12 15 1010.8 1007.8 0.0
21/06:00pm 31.1 28.0 10.4 28 12.2 NNW 17 24 9 13 1010.6 1007.5 0.0
21/05:30pm 31.4 26.9 10.2 27 12.5 NW 24 32 13 17 1010.6 1007.5 0.0
21/05:23pm 30.4 24.5 10.4 29 11.8 NNW 32 50 17 27 1010.6 1007.5 0.0
21/05:14pm 30.0 23.3 11.0 31 11.3 NW 37 50 20 27 1010.4 1007.3 0.0
21/05:00pm 31.0 29.1 11.9 31 11.5 NW 13 19 7 10 1010.9 1007.9 0.0
21/04:34pm 26.7 22.5 13.4 43 8.1 W 28 33 15 18 1011.4 1008.3 0.0
21/04:30pm 27.6 19.9 12.0 38 9.3 NW 44 65 24 35 1011.2 1008.2 0.0
21/04:06pm 31.2 22.0 8.2 24 13.1 NW 46 65 25 35 1009.9 1006.8 0.0
21/04:00pm 31.3 21.6 8.9 25 12.9 NW 50 65 27 35 1009.7 1006.7 0.0
21/03:37pm 31.1 22.5 8.8 25 12.8 NW 44 63 24 34 1009.6 1006.6 0.0
21/03:30pm 31.2 22.2 8.8 25 12.9 NW 46 57 25 31 1009.7 1006.7 0.0
21/03:00pm 31.2 22.0 8.2 24 13.1 NW 46 65 25 35 1010.1 1007.0 0.0
21/02:30pm 31.4 23.2 11.7 29 11.9 NNW 46 70 25 38 1010.7 1007.6 0.0
21/02:13pm 30.4 22.0 9.8 28 12.0 NW 44 63 24 34 1010.6 1007.5 0.0
21/02:00pm 30.1 22.3 9.6 28 11.9 NNW 41 57 22 31 1010.9 1007.9 0.0
21/01:35pm 30.2 21.7 10.7 30 11.5 NW 46 65 25 35 1011.2 1008.2 0.0
21/01:30pm 30.6 22.3 11.5 30 11.4 NNW 46 63 25 34 1011.2 1008.2 0.0
21/01:00pm 30.0 22.8 13.7 37 10.1 NNW 44 65 24 35 1011.9 1008.8 0.0
21/12:37pm 30.6 21.9 13.8 35 10.4 NW 52 70 28 38 1012.3 1009.3 0.0
21/12:30pm 30.2 20.5 13.5 36 10.3 NW 57 70 31 38 1011.5 1008.4 0.0
21/12:27pm 29.2 19.7 14.2 40 9.3 NW 57 69 31 37 1012.0 1009.0 0.0
21/12:08pm 29.5 23.5 14.5 40 9.4 NNW 39 61 21 33 1012.3 1009.3 0.0
21/12:00pm 29.1 23.4 15.2 42 8.8 NNW 39 56 21 30 1012.9 1009.8 0.0
21/11:38am 29.6 24.5 16.8 46 8.3 NNW 39 57 21 31 1013.4 1010.4 0.0
21/11:30am 27.6 22.2 15.9 49 7.4 NNW 39 54 21 29 1013.1 1010.0 0.0
21/11:25am 28.5 23.9 16.1 47 7.9 NNW 35 54 19 29 1013.3 1010.3 0.0
21/11:00am 27.7 23.3 16.6 50 7.1 NNW 35 50 19 27 1013.8 1010.8 0.0
21/10:30am 26.0 21.9 16.5 55 6.0 NNW 33 48 18 26 1014.1 1011.1 0.0
21/10:00am 26.1 22.2 16.9 57 5.9 NNW 33 46 18 25 1014.3 1011.2 0.0
21/09:30am 24.8 20.8 16.8 61 5.1 NNW 33 52 18 28 1014.4 1011.3 0.0
21/09:00am 24.7 20.9 16.7 61 5.1 NNW 32 50 17 27 1014.1 1011.1 0.0
21/08:30am 24.4 21.2 16.4 61 5.0 N 28 37 15 20 1014.5 1011.5 0.0
21/08:00am 24.1 20.9 16.4 62 4.9 NNW 28 39 15 21 1014.3 1011.2 0.0
21/07:30am 23.6 20.8 16.4 64 4.5 NNW 26 33 14 18 1014.3 1011.2 0.0
21/07:00am 23.1 19.9 16.2 65 4.3 NNW 28 39 15 21 1013.8 1010.8 0.0
21/06:30am 23.2 20.1 15.5 62 4.8 NNW 26 32 14 17 1013.5 1010.5 0.0
21/06:00am 23.4 19.8 15.2 60 5.1 NNW 28 35 15 19 1013.3 1010.3 0.0
21/05:30am 23.2 20.8 14.5 58 5.3 NW 20 28 11 15 1013.2 1010.2 0.0
21/05:00am 23.1 20.2 13.0 53 6.0 NW 20 26 11 14 1013.0 1009.9 0.0
21/04:30am 24.2 20.4 12.5 48 6.9 NW 24 30 13 16 1012.7 1009.7 0.0
21/04:00am 24.7 19.3 12.3 46 7.3 NNW 32 39 17 21 1012.2 1009.2 0.0
21/03:30am 25.2 19.8 11.0 41 8.2 NNW 30 43 16 23 1012.1 1009.1 0.0
21/03:04am 25.5 20.3 10.1 38 8.8 NNW 28 46 15 25 1011.9 1008.8 0.0
21/03:00am 25.3 20.3 9.6 37 8.9 NNW 26 39 14 21 1012.0 1009.0 0.0
21/02:30am 25.0 21.0 8.1 34 9.3 NW 19 20 10 11 1012.2 1009.2 0.0
21/02:00am 25.5 22.1 7.6 32 9.8 WNW 15 17 8 9 1012.4 1009.4 0.0
21/01:30am 25.1 21.7 7.7 33 9.5 NW 15 15 8 8 1012.6 1009.6 0.0

Other Formats:

Comma delimited format used in spreadsheet applications
http://www.bom.gov.au/fwo/IDN60801/IDN60801.95747.axf

JavaScript Object Notation format (JSON) in row-major order
http://www.bom.gov.au/fwo/IDN60801/IDN60801.95747.json